createdAt,value
2023-05-19T00:01:39.957Z,78.71
2023-05-19T00:04:10.661Z,78.66
2023-05-19T00:06:42.052Z,78.91
2023-05-19T00:09:12.961Z,79.13
2023-05-19T00:11:42.571Z,79.15
2023-05-19T00:14:12.156Z,79.22
2023-05-19T00:16:41.098Z,79.01
2023-05-19T00:19:11.406Z,78.98
2023-05-19T00:21:40.970Z,79.42
2023-05-19T00:24:10.477Z,79.19
2023-05-19T00:26:40.461Z,79.23
2023-05-19T00:29:10.951Z,79.12
2023-05-19T00:31:39.718Z,79.31
2023-05-19T00:34:11.050Z,79.51
2023-05-19T00:36:40.983Z,79.77
2023-05-19T00:39:11.073Z,79.49
2023-05-19T00:41:41.003Z,79.69
2023-05-19T00:44:09.741Z,79.81
2023-05-19T00:46:42.019Z,79.87
2023-05-19T00:49:12.042Z,80.30
2023-05-19T00:51:41.917Z,80.06
2023-05-19T00:54:11.233Z,79.92
2023-05-19T00:56:41.521Z,80.40
2023-05-19T00:59:11.348Z,80.50
2023-05-19T01:01:41.398Z,80.45
2023-05-19T01:04:11.979Z,80.38
2023-05-19T01:06:42.293Z,80.60
2023-05-19T01:09:12.846Z,80.45
2023-05-19T01:11:42.903Z,80.12
2023-05-19T01:14:12.771Z,80.10
2023-05-19T01:17:05.953Z,80.08
2023-05-19T01:19:39.256Z,80.21
2023-05-19T01:22:15.580Z,80.58
2023-05-19T01:25:10.908Z,80.47
2023-05-19T01:27:48.580Z,80.59
2023-05-19T01:30:25.885Z,80.65
2023-05-19T01:33:02.334Z,80.57
2023-05-19T01:35:33.528Z,80.68
2023-05-19T01:38:08.589Z,80.53
2023-05-19T01:40:40.971Z,80.75
2023-05-19T01:43:13.166Z,81.01
2023-05-19T01:45:43.395Z,80.79
2023-05-19T01:48:13.906Z,80.89
2023-05-19T01:50:44.408Z,80.67
2023-05-19T01:53:14.419Z,80.78
2023-05-19T01:55:51.962Z,80.98
2023-05-19T01:58:36.575Z,80.55
2023-05-19T02:01:19.894Z,80.74
2023-05-19T02:04:12.952Z,80.90
2023-05-19T02:06:47.136Z,80.80
2023-05-19T02:09:24.667Z,80.66
2023-05-19T02:12:10.254Z,80.65
2023-05-19T02:14:46.942Z,80.78
2023-05-19T02:17:17.282Z,81.09
2023-05-19T02:19:46.866Z,80.85
2023-05-19T02:22:17.508Z,80.97
2023-05-19T02:24:48.321Z,80.99
2023-05-19T02:27:18.337Z,80.91
2023-05-19T02:29:48.071Z,81.01
2023-05-19T02:32:18.644Z,80.94
2023-05-19T02:34:49.481Z,80.84
2023-05-19T02:37:18.924Z,81.01
2023-05-19T02:39:48.421Z,81.16
2023-05-19T02:42:20.619Z,81.24
2023-05-19T02:44:50.836Z,81.51
2023-05-19T02:47:20.607Z,81.52
2023-05-19T02:49:50.155Z,81.45
2023-05-19T02:52:19.913Z,81.59
2023-05-19T02:54:49.620Z,81.65
2023-05-19T02:57:19.450Z,81.94
2023-05-19T02:59:49.080Z,82.00
2023-05-19T03:02:18.758Z,81.92
2023-05-19T03:04:48.785Z,82.01
2023-05-19T03:07:19.584Z,81.82
2023-05-19T03:09:49.135Z,82.03
2023-05-19T03:12:18.692Z,81.84
2023-05-19T03:14:48.725Z,81.73
2023-05-19T03:17:18.288Z,81.59
2023-05-19T03:19:47.965Z,82.00
2023-05-19T03:22:16.732Z,82.88
2023-05-19T03:24:50.398Z,83.00
2023-05-19T03:27:20.198Z,83.30
2023-05-19T03:29:49.817Z,83.19
2023-05-19T03:32:19.529Z,83.22
2023-05-19T03:34:49.174Z,83.04
2023-05-19T03:37:18.895Z,83.11
2023-05-19T03:39:48.508Z,83.15
2023-05-19T03:42:18.186Z,83.14
2023-05-19T03:44:47.766Z,83.27
2023-05-19T03:47:17.777Z,83.18
2023-05-19T03:49:53.484Z,83.01
2023-05-19T03:52:50.145Z,82.92
2023-05-19T03:55:30.517Z,83.40
2023-05-19T03:58:00.028Z,83.33
2023-05-19T04:00:30.268Z,83.46
2023-05-19T04:03:00.997Z,83.27
2023-05-19T04:05:31.446Z,83.26
2023-05-19T04:08:02.726Z,83.04
2023-05-19T04:10:32.376Z,83.05
2023-05-19T04:13:02.133Z,82.96
2023-05-19T04:15:31.013Z,83.37
2023-05-19T04:18:02.224Z,83.52
2023-05-19T04:20:31.852Z,83.33
2023-05-19T04:23:01.563Z,83.46
2023-05-19T04:25:31.586Z,83.59
2023-05-19T04:28:01.736Z,83.52
2023-05-19T04:30:32.502Z,83.04
2023-05-19T04:33:05.209Z,82.93
2023-05-19T04:35:34.709Z,82.91
2023-05-19T04:38:04.781Z,83.38
2023-05-19T04:40:35.321Z,83.60
2023-05-19T04:43:07.818Z,83.16
2023-05-19T04:45:38.162Z,83.12
2023-05-19T04:48:07.291Z,83.11
2023-05-19T04:50:39.182Z,82.95
2023-05-19T04:53:09.815Z,82.72
2023-05-19T04:55:39.273Z,82.72
2023-05-19T04:58:09.041Z,82.98
2023-05-19T05:00:38.853Z,82.80
2023-05-19T05:03:10.428Z,83.05
2023-05-19T05:05:41.336Z,82.95
2023-05-19T05:08:11.506Z,82.69
2023-05-19T05:10:43.501Z,82.86
2023-05-19T05:13:13.186Z,82.72
2023-05-19T05:15:43.650Z,82.82
2023-05-19T05:18:14.088Z,83.27
2023-05-19T05:20:43.765Z,83.06
2023-05-19T05:23:17.160Z,82.50
2023-05-19T05:25:48.700Z,82.15
2023-05-19T05:28:18.357Z,81.56
2023-05-19T05:30:49.498Z,81.33
2023-05-19T05:33:19.888Z,81.38
2023-05-19T05:35:50.958Z,80.83
2023-05-19T05:38:21.121Z,80.53
2023-05-19T05:40:50.994Z,80.28
2023-05-19T05:43:22.349Z,79.98
2023-05-19T05:45:57.542Z,79.52
2023-05-19T05:48:28.079Z,78.80
2023-05-19T05:50:58.388Z,78.83
2023-05-19T05:53:32.658Z,78.55
2023-05-19T05:56:04.995Z,78.03
2023-05-19T05:58:41.192Z,77.80
2023-05-19T06:01:11.171Z,77.18
2023-05-19T06:03:42.045Z,77.15
2023-05-19T06:06:12.079Z,76.97
2023-05-19T06:08:42.424Z,76.62
2023-05-19T06:11:12.310Z,76.35
2023-05-19T06:13:42.860Z,76.22
2023-05-19T06:16:17.095Z,75.51
2023-05-19T06:18:48.244Z,75.11
2023-05-19T06:21:18.065Z,74.11
2023-05-19T06:23:47.393Z,73.66
2023-05-19T06:26:17.350Z,73.94
2023-05-19T06:28:46.987Z,74.06
2023-05-19T06:31:16.966Z,73.91
2023-05-19T06:33:54.245Z,73.38
2023-05-19T06:36:24.315Z,73.28
2023-05-19T06:38:54.750Z,72.92
2023-05-19T06:41:24.758Z,71.93
2023-05-19T06:43:54.440Z,71.51
2023-05-19T06:46:25.537Z,71.74
2023-05-19T06:48:57.751Z,71.06
2023-05-19T06:51:27.821Z,70.92
2023-05-19T06:53:59.044Z,70.79
2023-05-19T06:56:30.015Z,69.72
2023-05-19T06:58:59.353Z,69.42
2023-05-19T07:01:34.915Z,69.06
2023-05-19T07:04:05.194Z,66.59
2023-05-19T07:06:35.408Z,66.61
2023-05-19T07:09:06.001Z,66.53
2023-05-19T07:11:36.279Z,65.76
2023-05-19T07:14:05.922Z,66.51
2023-05-19T07:16:35.667Z,67.08
2023-05-19T07:19:05.842Z,64.72
2023-05-19T07:21:36.234Z,63.40
2023-05-19T07:24:06.333Z,63.83
2023-05-19T07:26:36.115Z,63.66
2023-05-19T07:29:04.797Z,62.07
2023-05-19T07:31:34.311Z,62.46
2023-05-19T07:34:04.357Z,58.79
2023-05-19T07:36:33.110Z,59.26
2023-05-19T07:39:03.388Z,57.56
2023-05-19T07:41:33.164Z,57.59
2023-05-19T07:44:08.116Z,58.58
2023-05-19T07:46:38.265Z,58.84
2023-05-19T07:49:07.684Z,56.96
2023-05-19T07:51:36.436Z,56.83
2023-05-19T07:54:06.372Z,55.01
2023-05-19T07:56:36.331Z,55.07
2023-05-19T07:59:06.035Z,54.64
2023-05-19T08:01:36.076Z,53.04
2023-05-19T08:04:05.991Z,53.27
2023-05-19T08:06:36.101Z,50.19
2023-05-19T08:09:06.269Z,49.45
2023-05-19T08:11:36.028Z,47.37
2023-05-19T08:14:06.070Z,48.04
2023-05-19T08:16:35.954Z,48.28
2023-05-19T08:19:07.775Z,46.97
2023-05-19T08:21:37.770Z,44.56
2023-05-19T08:24:07.628Z,46.10
2023-05-19T08:26:37.934Z,45.97
2023-05-19T08:29:08.018Z,44.98
2023-05-19T08:31:38.176Z,46.24
2023-05-19T08:34:07.995Z,47.84
2023-05-19T08:36:38.019Z,47.45
2023-05-19T08:39:07.822Z,48.99
2023-05-19T08:41:37.951Z,48.33
2023-05-19T08:44:07.532Z,47.58
2023-05-19T08:46:37.756Z,47.64
2023-05-19T08:49:12.755Z,47.24
2023-05-19T08:51:43.057Z,47.99
2023-05-19T08:54:16.316Z,47.31
2023-05-19T08:56:47.043Z,47.58
2023-05-19T08:59:17.953Z,47.09
2023-05-19T09:01:48.223Z,46.93
2023-05-19T09:04:18.101Z,46.84
2023-05-19T09:06:47.528Z,46.51
2023-05-19T09:09:17.856Z,46.41
2023-05-19T09:11:47.551Z,46.32
2023-05-19T09:14:16.300Z,44.61
2023-05-19T09:16:50.159Z,44.25
2023-05-19T09:19:21.334Z,44.88
2023-05-19T09:22:00.642Z,43.13
2023-05-19T09:24:30.489Z,42.87
2023-05-19T09:27:00.394Z,43.82
2023-05-19T09:29:31.404Z,42.72
2023-05-19T09:32:04.772Z,43.02
2023-05-19T09:34:34.859Z,41.60
2023-05-19T09:37:06.192Z,42.61
2023-05-19T09:39:36.189Z,43.57
2023-05-19T09:42:07.273Z,39.60
2023-05-19T09:44:36.848Z,40.98
2023-05-19T09:47:05.751Z,41.14
2023-05-19T09:49:35.734Z,40.96
2023-05-19T09:52:06.289Z,40.80
2023-05-19T09:54:34.938Z,41.25
2023-05-19T09:57:07.708Z,41.56
2023-05-19T09:59:39.567Z,40.36
2023-05-19T10:02:11.938Z,38.76
2023-05-19T10:04:40.986Z,34.93
2023-05-19T10:07:14.838Z,35.45
2023-05-19T10:09:44.365Z,36.82
2023-05-19T10:12:13.827Z,35.25
2023-05-19T10:14:42.857Z,34.43
2023-05-19T10:17:12.871Z,33.92
2023-05-19T10:19:44.491Z,36.23
2023-05-19T10:22:14.612Z,35.03
2023-05-19T10:24:44.174Z,34.72
2023-05-19T10:27:15.061Z,34.00
2023-05-19T10:29:49.621Z,33.68
2023-05-19T10:32:21.750Z,35.31
2023-05-19T10:34:58.703Z,33.88
2023-05-19T10:37:48.551Z,32.73
2023-05-19T10:40:22.180Z,32.70
2023-05-19T10:42:52.438Z,33.43
2023-05-19T10:45:29.238Z,33.47
2023-05-19T10:47:58.099Z,33.61
2023-05-19T10:50:27.519Z,31.24
2023-05-19T10:52:58.354Z,29.86
2023-05-19T10:55:48.183Z,30.96
2023-05-19T10:58:37.172Z,30.86
2023-05-19T11:01:14.082Z,30.02
2023-05-19T11:03:51.086Z,29.71
2023-05-19T11:06:22.484Z,29.21
2023-05-19T11:09:14.905Z,29.23
2023-05-19T11:11:48.400Z,28.91
2023-05-19T11:14:24.664Z,28.80
2023-05-19T11:16:57.269Z,29.04
2023-05-19T11:19:31.857Z,29.70
2023-05-19T11:22:14.364Z,29.48
2023-05-19T11:24:50.525Z,28.99
2023-05-19T11:27:23.669Z,28.93
2023-05-19T11:29:54.209Z,28.94
2023-05-19T11:32:26.802Z,28.02
2023-05-19T11:34:58.246Z,27.16
2023-05-19T11:37:31.273Z,27.06
2023-05-19T11:40:03.158Z,26.41
2023-05-19T11:42:32.648Z,27.43
2023-05-19T11:45:02.524Z,28.33
2023-05-19T11:47:42.125Z,27.63
2023-05-19T11:50:21.754Z,27.65
2023-05-19T11:52:52.370Z,27.26
2023-05-19T11:55:22.671Z,27.70
2023-05-19T11:58:05.112Z,26.79
2023-05-19T12:00:40.093Z,26.70
2023-05-19T12:03:11.277Z,26.88
2023-05-19T12:05:45.075Z,27.24
2023-05-19T12:08:17.552Z,26.91
2023-05-19T12:10:52.868Z,28.02
2023-05-19T12:13:23.261Z,26.59
2023-05-19T12:15:53.652Z,26.45
2023-05-19T12:18:24.295Z,26.15
2023-05-19T12:20:54.088Z,24.66
2023-05-19T12:23:25.398Z,26.29
2023-05-19T12:25:55.094Z,26.23
2023-05-19T12:28:24.880Z,25.00
2023-05-19T12:30:54.658Z,25.97
2023-05-19T12:33:24.854Z,25.96
2023-05-19T12:35:54.938Z,25.91
2023-05-19T12:38:25.070Z,25.94
2023-05-19T12:41:00.594Z,24.84
2023-05-19T12:43:30.047Z,24.92
2023-05-19T12:45:58.854Z,25.99
2023-05-19T12:48:29.053Z,24.20
2023-05-19T12:50:58.651Z,25.15
2023-05-19T12:53:29.012Z,24.47
2023-05-19T12:55:58.562Z,25.04
2023-05-19T12:58:28.216Z,24.42
2023-05-19T13:01:00.335Z,24.73
2023-05-19T13:03:29.869Z,25.12
2023-05-19T13:06:00.377Z,26.57
2023-05-19T13:08:30.215Z,25.76
2023-05-19T13:11:02.195Z,25.45
2023-05-19T13:13:31.888Z,25.43
2023-05-19T13:16:01.217Z,25.79
2023-05-19T13:18:32.897Z,25.28
2023-05-19T13:21:02.497Z,25.47
2023-05-19T13:23:33.421Z,25.50
2023-05-19T13:26:05.454Z,24.46
2023-05-19T13:28:34.923Z,24.23
2023-05-19T13:31:06.284Z,24.98
2023-05-19T13:33:35.867Z,24.99
2023-05-19T13:36:05.587Z,24.36
2023-05-19T13:38:34.239Z,24.39
2023-05-19T13:41:03.035Z,25.46
2023-05-19T13:43:32.423Z,27.17
2023-05-19T13:46:01.870Z,26.90
2023-05-19T13:48:31.481Z,26.59
2023-05-19T13:51:00.878Z,26.64
2023-05-19T13:53:31.664Z,27.24
2023-05-19T13:56:01.281Z,27.28
2023-05-19T13:58:30.877Z,27.22
2023-05-19T14:01:00.678Z,26.49
2023-05-19T14:03:30.900Z,27.06
2023-05-19T14:06:00.528Z,27.13
2023-05-19T14:08:30.155Z,27.29
2023-05-19T14:10:58.947Z,30.02
2023-05-19T14:13:34.207Z,31.71
2023-05-19T14:16:05.451Z,33.80
2023-05-19T14:18:34.907Z,34.58
2023-05-19T14:21:04.332Z,35.70
2023-05-19T14:23:33.729Z,36.47
2023-05-19T14:26:05.237Z,36.35
2023-05-19T14:28:34.872Z,37.09
2023-05-19T14:31:04.302Z,37.22
2023-05-19T14:33:35.563Z,36.96
2023-05-19T14:36:08.057Z,37.16
2023-05-19T14:38:37.544Z,37.31
2023-05-19T14:41:07.678Z,37.51
2023-05-19T14:43:37.268Z,37.43
2023-05-19T14:46:06.689Z,38.19
2023-05-19T14:48:36.185Z,37.77
2023-05-19T14:51:05.948Z,37.57
2023-05-19T14:53:35.457Z,37.78
2023-05-19T14:56:06.460Z,38.30
2023-05-19T14:58:36.146Z,38.35
2023-05-19T15:01:05.520Z,38.73
2023-05-19T15:03:35.000Z,38.85
2023-05-19T15:06:08.532Z,39.68
2023-05-19T15:08:39.695Z,39.64
2023-05-19T15:11:09.443Z,39.58
2023-05-19T15:13:38.817Z,38.49
2023-05-19T15:16:17.382Z,37.45
2023-05-19T15:18:52.170Z,37.12
2023-05-19T15:21:21.965Z,37.08
2023-05-19T15:23:51.328Z,37.24
2023-05-19T15:26:20.765Z,37.20
2023-05-19T15:28:52.433Z,36.79
2023-05-19T15:31:22.801Z,37.05
2023-05-19T15:33:52.589Z,38.37
2023-05-19T15:36:22.431Z,38.90
2023-05-19T15:38:52.264Z,38.09
2023-05-19T15:41:22.285Z,38.63
2023-05-19T15:43:52.280Z,39.11
2023-05-19T15:46:22.104Z,39.74
2023-05-19T15:48:52.710Z,39.66
2023-05-19T15:51:23.029Z,39.28
2023-05-19T15:53:53.258Z,39.00
2023-05-19T15:56:23.114Z,38.82
2023-05-19T15:58:55.553Z,38.52
2023-05-19T16:01:25.030Z,37.39
2023-05-19T16:03:57.425Z,37.42
2023-05-19T16:06:28.199Z,37.52
2023-05-19T16:08:58.642Z,37.51
2023-05-19T16:11:27.942Z,36.93
2023-05-19T16:13:58.332Z,36.49
2023-05-19T16:16:28.602Z,36.46
2023-05-19T16:19:02.793Z,36.76
2023-05-19T16:21:33.041Z,36.66
2023-05-19T16:24:03.516Z,36.39
2023-05-19T16:26:34.940Z,36.36
2023-05-19T16:29:04.870Z,36.27
2023-05-19T16:31:35.250Z,36.56
2023-05-19T16:34:04.812Z,36.47
2023-05-19T16:36:34.930Z,36.83
2023-05-19T16:39:05.187Z,37.05
2023-05-19T16:41:35.193Z,37.38
2023-05-19T16:44:05.221Z,38.12
2023-05-19T16:46:35.035Z,38.26
2023-05-19T16:49:06.470Z,38.93
2023-05-19T16:51:38.625Z,39.33
2023-05-19T16:54:08.214Z,39.71
2023-05-19T16:56:37.885Z,40.21
2023-05-19T16:59:08.283Z,39.89
2023-05-19T17:01:38.687Z,39.92
2023-05-19T17:04:09.152Z,41.61
2023-05-19T17:06:38.904Z,42.50
2023-05-19T17:09:08.387Z,42.26
2023-05-19T17:11:37.879Z,42.66
2023-05-19T17:14:09.697Z,43.23
2023-05-19T17:16:39.310Z,43.54
2023-05-19T17:19:09.394Z,44.32
2023-05-19T17:21:38.987Z,44.70
2023-05-19T17:24:08.661Z,45.20
2023-05-19T17:26:37.991Z,43.39
2023-05-19T17:29:09.327Z,42.69
2023-05-19T17:31:40.731Z,42.63
2023-05-19T17:34:09.475Z,42.78
2023-05-19T17:36:38.989Z,42.91
2023-05-19T17:39:08.569Z,43.33
2023-05-19T17:41:38.012Z,43.83
2023-05-19T17:44:07.752Z,44.63
2023-05-19T18:17:05.314Z,49.55
2023-05-19T18:19:35.376Z,49.97
2023-05-19T18:22:04.922Z,49.90
2023-05-19T18:24:34.279Z,50.35
2023-05-19T18:27:03.758Z,50.55
2023-05-19T18:29:36.638Z,50.68
2023-05-19T18:32:06.939Z,50.66
2023-05-19T18:34:36.816Z,51.29
2023-05-19T18:37:05.573Z,51.77
2023-05-19T18:39:35.536Z,51.99
2023-05-19T18:42:05.496Z,52.25
2023-05-19T18:44:34.346Z,53.02
2023-05-19T18:47:03.800Z,52.83
2023-05-19T18:49:33.226Z,52.94
2023-05-19T18:52:02.698Z,53.37
2023-05-19T18:54:32.959Z,53.37
2023-05-19T18:57:03.885Z,53.93
2023-05-19T18:59:33.375Z,54.39
2023-05-19T19:02:03.653Z,55.16
2023-05-19T19:04:33.670Z,56.08
2023-05-19T19:07:03.235Z,55.49
2023-05-19T19:09:32.604Z,55.04
2023-05-19T19:12:02.313Z,55.56
2023-05-19T19:14:32.165Z,55.92
2023-05-19T19:17:01.572Z,56.04
2023-05-19T19:19:32.840Z,57.23
2023-05-19T19:22:02.590Z,57.16
2023-05-19T19:24:32.678Z,57.29
2023-05-19T19:27:02.396Z,57.17
2023-05-19T19:29:31.244Z,57.85
2023-05-19T19:32:00.909Z,58.54
2023-05-19T19:34:30.452Z,58.56
2023-05-19T19:37:00.011Z,58.27
2023-05-19T19:39:29.459Z,59.48
2023-05-19T19:41:58.932Z,59.35
2023-05-19T19:44:28.296Z,59.73
2023-05-19T19:46:57.799Z,60.18
2023-05-19T19:49:27.296Z,60.52
2023-05-19T19:51:59.110Z,60.66
2023-05-19T19:54:28.538Z,60.84
2023-05-19T19:56:58.302Z,60.73
2023-05-19T19:59:27.764Z,60.77
2023-05-19T20:01:57.173Z,60.72
2023-05-19T20:04:27.098Z,60.72
2023-05-19T20:06:56.988Z,61.50
2023-05-19T20:09:26.770Z,61.77
2023-05-19T20:11:55.429Z,62.58
2023-05-19T20:14:27.616Z,62.95
2023-05-19T20:16:56.298Z,62.70
2023-05-19T20:19:31.460Z,62.98
2023-05-19T20:22:01.064Z,62.82
2023-05-19T20:24:30.491Z,62.76
2023-05-19T20:27:00.027Z,62.56
2023-05-19T20:29:29.418Z,62.66
2023-05-19T20:31:58.943Z,62.61
2023-05-19T20:34:28.434Z,62.93
2023-05-19T20:36:57.822Z,63.11
2023-05-19T20:39:27.140Z,62.98
2023-05-19T20:41:56.691Z,62.85
2023-05-19T20:44:26.272Z,63.02
2023-05-19T20:46:55.654Z,62.99
2023-05-19T20:49:25.257Z,63.26
2023-05-19T20:51:54.821Z,63.54
2023-05-19T20:54:24.246Z,64.03
2023-05-19T20:56:53.790Z,64.29
2023-05-19T20:59:23.279Z,63.56
2023-05-19T21:01:53.381Z,63.67
2023-05-19T21:04:23.801Z,64.10
2023-05-19T21:06:54.196Z,64.24
2023-05-19T21:09:24.322Z,64.54
2023-05-19T21:11:54.536Z,64.50
2023-05-19T21:14:27.765Z,64.82
2023-05-19T21:16:57.753Z,65.06
2023-05-19T21:19:28.053Z,65.09
2023-05-19T21:21:58.267Z,65.18
2023-05-19T21:24:29.048Z,64.98
2023-05-19T21:27:00.653Z,65.28
2023-05-19T21:29:30.507Z,65.69
2023-05-19T21:32:00.639Z,65.89
2023-05-19T21:34:31.258Z,65.74
2023-05-19T21:37:01.837Z,65.96
2023-05-19T21:39:31.944Z,66.46
2023-05-19T21:42:01.816Z,66.74
2023-05-19T21:44:32.889Z,66.60
2023-05-19T21:47:03.020Z,66.66
2023-05-19T21:49:33.033Z,66.91
2023-05-19T21:52:03.164Z,67.30
2023-05-19T21:54:33.203Z,67.14
2023-05-19T21:57:03.360Z,67.04
2023-05-19T21:59:33.512Z,66.63
2023-05-19T22:02:03.788Z,66.70
2023-05-19T22:04:34.410Z,67.30
2023-05-19T22:07:04.446Z,67.71
2023-05-19T22:09:34.531Z,67.77
2023-05-19T22:12:04.738Z,67.91
2023-05-19T22:14:34.654Z,68.62
2023-05-19T22:17:04.128Z,68.33
2023-05-19T22:19:34.420Z,68.35
2023-05-19T22:22:13.173Z,67.39
2023-05-19T22:24:45.052Z,67.94
2023-05-19T22:27:15.149Z,67.65
2023-05-19T22:29:45.553Z,68.42
2023-05-19T22:32:18.663Z,68.60
2023-05-19T22:34:50.004Z,68.77
2023-05-19T22:37:20.136Z,69.64
2023-05-19T22:39:50.625Z,69.69
2023-05-19T22:42:21.147Z,68.89
2023-05-19T22:44:51.501Z,68.92
2023-05-19T22:47:20.677Z,68.84
2023-05-19T22:49:51.425Z,69.31
2023-05-19T22:52:21.905Z,69.14
2023-05-19T22:54:52.401Z,70.27
2023-05-19T22:57:22.961Z,70.26
2023-05-19T22:59:53.447Z,69.41
2023-05-19T23:02:23.559Z,70.02
2023-05-19T23:04:53.688Z,69.68
2023-05-19T23:07:23.735Z,69.91
2023-05-19T23:09:53.731Z,69.85
2023-05-19T23:12:23.289Z,69.98
2023-05-19T23:14:53.629Z,70.52
2023-05-19T23:17:23.619Z,70.54
2023-05-19T23:19:53.867Z,70.79
2023-05-19T23:22:25.563Z,70.96
2023-05-19T23:24:55.711Z,71.02
2023-05-19T23:27:25.780Z,70.99
2023-05-19T23:29:55.490Z,70.98
2023-05-19T23:32:27.288Z,70.69
2023-05-19T23:34:57.972Z,70.87
2023-05-19T23:37:28.116Z,70.67
2023-05-19T23:39:58.521Z,70.55
2023-05-19T23:42:28.650Z,70.86
2023-05-19T23:44:58.815Z,71.47
2023-05-19T23:47:28.794Z,70.96
2023-05-19T23:49:59.132Z,71.24
2023-05-19T23:52:29.310Z,71.93
2023-05-19T23:54:59.371Z,71.51
2023-05-19T23:57:29.292Z,71.54
2023-05-19T23:59:59.898Z,71.54
